sensor_id;sensor_type;location;lat;lon;timestamp;P1;durP1;ratioP1;P2;durP2;ratioP2
27802;SDS011;15182;48.174;11.562;2023-03-03T00:00:49;43.30;;;20.77;;
27802;SDS011;15182;48.174;11.562;2023-03-03T00:03:21;40.17;;;18.63;;
27802;SDS011;15182;48.174;11.562;2023-03-03T00:05:55;43.63;;;19.30;;
27802;SDS011;15182;48.174;11.562;2023-03-03T00:08:26;40.97;;;18.47;;
27802;SDS011;15182;48.174;11.562;2023-03-03T00:11:00;38.30;;;18.97;;
27802;SDS011;15182;48.174;11.562;2023-03-03T00:13:43;42.00;;;19.97;;
27802;SDS011;15182;48.174;11.562;2023-03-03T00:16:16;42.90;;;18.20;;
27802;SDS011;15182;48.174;11.562;2023-03-03T00:18:56;38.60;;;18.97;;
27802;SDS011;15182;48.174;11.562;2023-03-03T00:21:30;44.00;;;20.27;;
27802;SDS011;15182;48.174;11.562;2023-03-03T00:24:14;39.57;;;18.10;;
27802;SDS011;15182;48.174;11.562;2023-03-03T00:26:48;38.23;;;18.33;;
27802;SDS011;15182;48.174;11.562;2023-03-03T00:32:21;47.13;;;20.13;;
27802;SDS011;15182;48.174;11.562;2023-03-03T00:34:55;38.60;;;18.30;;
27802;SDS011;15182;48.174;11.562;2023-03-03T00:37:49;42.50;;;19.00;;
27802;SDS011;15182;48.174;11.562;2023-03-03T00:40:26;46.00;;;20.13;;
27802;SDS011;15182;48.174;11.562;2023-03-03T00:43:11;43.30;;;20.27;;
27802;SDS011;15182;48.174;11.562;2023-03-03T00:45:47;35.67;;;17.97;;
27802;SDS011;15182;48.174;11.562;2023-03-03T00:48:22;44.43;;;18.60;;
27802;SDS011;15182;48.174;11.562;2023-03-03T00:50:57;45.37;;;18.77;;
27802;SDS011;15182;48.174;11.562;2023-03-03T00:53:49;40.83;;;18.53;;
27802;SDS011;15182;48.174;11.562;2023-03-03T00:56:21;38.83;;;18.30;;
27802;SDS011;15182;48.174;11.562;2023-03-03T00:58:53;43.57;;;19.73;;
27802;SDS011;15182;48.174;11.562;2023-03-03T01:01:27;38.13;;;18.20;;
27802;SDS011;15182;48.174;11.562;2023-03-03T01:04:00;41.33;;;18.83;;
27802;SDS011;15182;48.174;11.562;2023-03-03T01:06:31;45.93;;;19.57;;
27802;SDS011;15182;48.174;11.562;2023-03-03T01:09:04;41.40;;;18.60;;
27802;SDS011;15182;48.174;11.562;2023-03-03T01:11:35;32.90;;;17.60;;
27802;SDS011;15182;48.174;11.562;2023-03-03T01:14:07;37.13;;;18.20;;
27802;SDS011;15182;48.174;11.562;2023-03-03T01:16:38;40.60;;;18.77;;
27802;SDS011;15182;48.174;11.562;2023-03-03T01:19:12;40.87;;;18.10;;
27802;SDS011;15182;48.174;11.562;2023-03-03T01:21:43;40.30;;;19.60;;
27802;SDS011;15182;48.174;11.562;2023-03-03T01:24:15;39.10;;;17.90;;
27802;SDS011;15182;48.174;11.562;2023-03-03T01:26:47;46.10;;;18.97;;
27802;SDS011;15182;48.174;11.562;2023-03-03T01:29:18;41.43;;;18.70;;
27802;SDS011;15182;48.174;11.562;2023-03-03T01:31:50;42.10;;;18.83;;
27802;SDS011;15182;48.174;11.562;2023-03-03T01:34:21;37.77;;;17.93;;
27802;SDS011;15182;48.174;11.562;2023-03-03T01:36:52;44.00;;;19.87;;
27802;SDS011;15182;48.174;11.562;2023-03-03T01:39:27;38.57;;;19.40;;
27802;SDS011;15182;48.174;11.562;2023-03-03T01:42:00;45.97;;;20.47;;
27802;SDS011;15182;48.174;11.562;2023-03-03T01:44:33;44.37;;;20.50;;
27802;SDS011;15182;48.174;11.562;2023-03-03T01:47:06;47.37;;;20.07;;
27802;SDS011;15182;48.174;11.562;2023-03-03T01:49:41;40.33;;;19.13;;
27802;SDS011;15182;48.174;11.562;2023-03-03T01:52:20;42.30;;;19.23;;
27802;SDS011;15182;48.174;11.562;2023-03-03T01:55:00;41.37;;;19.30;;
27802;SDS011;15182;48.174;11.562;2023-03-03T01:57:38;39.80;;;19.10;;
27802;SDS011;15182;48.174;11.562;2023-03-03T02:00:15;38.63;;;18.63;;
27802;SDS011;15182;48.174;11.562;2023-03-03T02:02:47;42.57;;;19.87;;
27802;SDS011;15182;48.174;11.562;2023-03-03T02:05:20;41.53;;;19.37;;
27802;SDS011;15182;48.174;11.562;2023-03-03T02:07:51;44.30;;;19.70;;
27802;SDS011;15182;48.174;11.562;2023-03-03T02:10:24;45.67;;;20.37;;
27802;SDS011;15182;48.174;11.562;2023-03-03T02:12:57;46.63;;;20.53;;
27802;SDS011;15182;48.174;11.562;2023-03-03T02:15:29;47.00;;;20.07;;
27802;SDS011;15182;48.174;11.562;2023-03-03T02:18:05;47.50;;;20.87;;
27802;SDS011;15182;48.174;11.562;2023-03-03T02:20:43;43.40;;;19.70;;
27802;SDS011;15182;48.174;11.562;2023-03-03T02:23:21;43.93;;;19.83;;
27802;SDS011;15182;48.174;11.562;2023-03-03T02:26:06;41.03;;;20.73;;
27802;SDS011;15182;48.174;11.562;2023-03-03T02:28:42;43.93;;;19.87;;
27802;SDS011;15182;48.174;11.562;2023-03-03T02:31:16;41.30;;;19.27;;
27802;SDS011;15182;48.174;11.562;2023-03-03T02:33:53;45.70;;;19.33;;
27802;SDS011;15182;48.174;11.562;2023-03-03T02:36:26;39.63;;;17.97;;
27802;SDS011;15182;48.174;11.562;2023-03-03T02:39:01;41.20;;;19.17;;
27802;SDS011;15182;48.174;11.562;2023-03-03T02:41:41;40.77;;;19.60;;
27802;SDS011;15182;48.174;11.562;2023-03-03T02:44:26;43.63;;;19.50;;
27802;SDS011;15182;48.174;11.562;2023-03-03T02:46:59;44.97;;;20.37;;
27802;SDS011;15182;48.174;11.562;2023-03-03T02:49:31;42.83;;;19.23;;
27802;SDS011;15182;48.174;11.562;2023-03-03T02:52:05;43.40;;;19.90;;
27802;SDS011;15182;48.174;11.562;2023-03-03T02:54:43;44.47;;;19.90;;
27802;SDS011;15182;48.174;11.562;2023-03-03T02:57:15;43.17;;;20.07;;
27802;SDS011;15182;48.174;11.562;2023-03-03T02:59:47;44.87;;;21.30;;
27802;SDS011;15182;48.174;11.562;2023-03-03T03:02:21;39.97;;;19.93;;
27802;SDS011;15182;48.174;11.562;2023-03-03T03:04:54;38.30;;;18.53;;
27802;SDS011;15182;48.174;11.562;2023-03-03T03:07:25;40.67;;;18.83;;
27802;SDS011;15182;48.174;11.562;2023-03-03T03:09:57;42.23;;;18.80;;
27802;SDS011;15182;48.174;11.562;2023-03-03T03:12:32;37.10;;;17.87;;
27802;SDS011;15182;48.174;11.562;2023-03-03T03:15:03;41.27;;;19.37;;
27802;SDS011;15182;48.174;11.562;2023-03-03T03:17:36;45.10;;;18.97;;
27802;SDS011;15182;48.174;11.562;2023-03-03T03:20:09;49.27;;;20.23;;
27802;SDS011;15182;48.174;11.562;2023-03-03T03:22:42;39.43;;;19.37;;
27802;SDS011;15182;48.174;11.562;2023-03-03T03:25:16;45.53;;;20.97;;
27802;SDS011;15182;48.174;11.562;2023-03-03T03:27:48;44.10;;;20.03;;
27802;SDS011;15182;48.174;11.562;2023-03-03T03:30:22;44.67;;;19.87;;
27802;SDS011;15182;48.174;11.562;2023-03-03T03:32:53;44.80;;;20.87;;
27802;SDS011;15182;48.174;11.562;2023-03-03T03:35:26;38.90;;;19.20;;
27802;SDS011;15182;48.174;11.562;2023-03-03T03:37:58;34.87;;;17.70;;
27802;SDS011;15182;48.174;11.562;2023-03-03T03:40:29;43.33;;;19.67;;
27802;SDS011;15182;48.174;11.562;2023-03-03T03:43:02;50.80;;;21.53;;
27802;SDS011;15182;48.174;11.562;2023-03-03T03:45:34;37.67;;;17.73;;
27802;SDS011;15182;48.174;11.562;2023-03-03T03:48:07;43.80;;;19.73;;
27802;SDS011;15182;48.174;11.562;2023-03-03T03:50:41;46.13;;;19.60;;
27802;SDS011;15182;48.174;11.562;2023-03-03T03:53:12;44.10;;;20.70;;
27802;SDS011;15182;48.174;11.562;2023-03-03T03:55:45;38.17;;;18.03;;
27802;SDS011;15182;48.174;11.562;2023-03-03T03:58:19;38.27;;;19.87;;
27802;SDS011;15182;48.174;11.562;2023-03-03T04:01:00;41.33;;;20.00;;
27802;SDS011;15182;48.174;11.562;2023-03-03T04:03:33;42.80;;;20.10;;
27802;SDS011;15182;48.174;11.562;2023-03-03T04:06:09;43.07;;;20.63;;
27802;SDS011;15182;48.174;11.562;2023-03-03T04:08:40;41.53;;;20.13;;
27802;SDS011;15182;48.174;11.562;2023-03-03T04:11:13;40.10;;;19.73;;
27802;SDS011;15182;48.174;11.562;2023-03-03T04:13:46;42.23;;;20.07;;
27802;SDS011;15182;48.174;11.562;2023-03-03T04:16:19;44.47;;;21.43;;
27802;SDS011;15182;48.174;11.562;2023-03-03T04:18:51;44.30;;;20.33;;
27802;SDS011;15182;48.174;11.562;2023-03-03T04:21:25;44.30;;;20.50;;
27802;SDS011;15182;48.174;11.562;2023-03-03T04:23:58;40.80;;;19.63;;
27802;SDS011;15182;48.174;11.562;2023-03-03T04:26:32;38.67;;;18.77;;
27802;SDS011;15182;48.174;11.562;2023-03-03T04:29:05;43.30;;;19.97;;
27802;SDS011;15182;48.174;11.562;2023-03-03T04:31:37;41.67;;;19.57;;
27802;SDS011;15182;48.174;11.562;2023-03-03T04:34:09;43.03;;;19.83;;
27802;SDS011;15182;48.174;11.562;2023-03-03T04:36:42;42.67;;;20.17;;
27802;SDS011;15182;48.174;11.562;2023-03-03T04:39:13;48.00;;;20.43;;
27802;SDS011;15182;48.174;11.562;2023-03-03T04:41:44;50.10;;;22.20;;
27802;SDS011;15182;48.174;11.562;2023-03-03T04:44:18;46.33;;;20.47;;
27802;SDS011;15182;48.174;11.562;2023-03-03T04:46:49;45.33;;;21.23;;
27802;SDS011;15182;48.174;11.562;2023-03-03T04:49:20;43.67;;;20.90;;
27802;SDS011;15182;48.174;11.562;2023-03-03T04:51:51;48.20;;;19.63;;
27802;SDS011;15182;48.174;11.562;2023-03-03T04:54:25;50.07;;;20.90;;
27802;SDS011;15182;48.174;11.562;2023-03-03T04:56:56;46.57;;;20.77;;
27802;SDS011;15182;48.174;11.562;2023-03-03T04:59:29;50.40;;;22.10;;
27802;SDS011;15182;48.174;11.562;2023-03-03T05:02:00;49.10;;;21.80;;
27802;SDS011;15182;48.174;11.562;2023-03-03T05:04:35;45.87;;;20.60;;
27802;SDS011;15182;48.174;11.562;2023-03-03T05:07:06;46.27;;;19.60;;
27802;SDS011;15182;48.174;11.562;2023-03-03T05:09:39;45.27;;;20.87;;
27802;SDS011;15182;48.174;11.562;2023-03-03T05:12:11;45.93;;;21.50;;
27802;SDS011;15182;48.174;11.562;2023-03-03T05:14:44;49.03;;;20.83;;
27802;SDS011;15182;48.174;11.562;2023-03-03T05:17:15;52.10;;;22.23;;
27802;SDS011;15182;48.174;11.562;2023-03-03T05:19:47;46.23;;;21.20;;
27802;SDS011;15182;48.174;11.562;2023-03-03T05:22:18;48.17;;;21.07;;
27802;SDS011;15182;48.174;11.562;2023-03-03T05:24:50;45.90;;;21.27;;
27802;SDS011;15182;48.174;11.562;2023-03-03T05:27:22;51.10;;;22.20;;
27802;SDS011;15182;48.174;11.562;2023-03-03T05:29:55;45.20;;;20.87;;
27802;SDS011;15182;48.174;11.562;2023-03-03T05:32:28;44.93;;;20.30;;
27802;SDS011;15182;48.174;11.562;2023-03-03T05:34:59;48.50;;;22.33;;
27802;SDS011;15182;48.174;11.562;2023-03-03T05:37:33;45.00;;;20.30;;
27802;SDS011;15182;48.174;11.562;2023-03-03T05:40:08;45.20;;;21.30;;
27802;SDS011;15182;48.174;11.562;2023-03-03T05:42:43;47.90;;;20.50;;
27802;SDS011;15182;48.174;11.562;2023-03-03T05:45:16;45.80;;;20.80;;
27802;SDS011;15182;48.174;11.562;2023-03-03T05:47:49;49.07;;;21.50;;
27802;SDS011;15182;48.174;11.562;2023-03-03T05:50:21;60.37;;;23.10;;
27802;SDS011;15182;48.174;11.562;2023-03-03T05:52:53;44.33;;;20.83;;
27802;SDS011;15182;48.174;11.562;2023-03-03T05:55:25;48.40;;;21.37;;
27802;SDS011;15182;48.174;11.562;2023-03-03T05:57:56;45.17;;;22.00;;
27802;SDS011;15182;48.174;11.562;2023-03-03T06:00:29;50.23;;;22.93;;
27802;SDS011;15182;48.174;11.562;2023-03-03T06:03:00;46.50;;;21.77;;
27802;SDS011;15182;48.174;11.562;2023-03-03T06:05:33;44.30;;;21.27;;
27802;SDS011;15182;48.174;11.562;2023-03-03T06:08:05;51.17;;;22.60;;
27802;SDS011;15182;48.174;11.562;2023-03-03T06:10:38;52.73;;;23.30;;
27802;SDS011;15182;48.174;11.562;2023-03-03T06:13:12;46.47;;;21.93;;
27802;SDS011;15182;48.174;11.562;2023-03-03T06:15:45;45.00;;;21.03;;
27802;SDS011;15182;48.174;11.562;2023-03-03T06:18:17;48.40;;;21.43;;
27802;SDS011;15182;48.174;11.562;2023-03-03T06:20:50;53.37;;;22.90;;
27802;SDS011;15182;48.174;11.562;2023-03-03T06:23:22;50.57;;;24.03;;
27802;SDS011;15182;48.174;11.562;2023-03-03T06:25:53;47.03;;;21.20;;
27802;SDS011;15182;48.174;11.562;2023-03-03T06:28:32;49.17;;;21.13;;
27802;SDS011;15182;48.174;11.562;2023-03-03T06:31:04;51.40;;;21.50;;
27802;SDS011;15182;48.174;11.562;2023-03-03T06:33:37;56.80;;;23.20;;
27802;SDS011;15182;48.174;11.562;2023-03-03T06:36:09;50.77;;;22.07;;
27802;SDS011;15182;48.174;11.562;2023-03-03T06:38:40;51.37;;;22.30;;
27802;SDS011;15182;48.174;11.562;2023-03-03T06:41:11;57.43;;;23.00;;
27802;SDS011;15182;48.174;11.562;2023-03-03T06:43:43;57.70;;;23.17;;
27802;SDS011;15182;48.174;11.562;2023-03-03T06:46:22;52.53;;;23.00;;
27802;SDS011;15182;48.174;11.562;2023-03-03T06:48:54;54.03;;;23.77;;
27802;SDS011;15182;48.174;11.562;2023-03-03T06:51:26;51.63;;;23.47;;
27802;SDS011;15182;48.174;11.562;2023-03-03T06:54:01;49.90;;;21.50;;
27802;SDS011;15182;48.174;11.562;2023-03-03T06:56:38;57.20;;;23.80;;
27802;SDS011;15182;48.174;11.562;2023-03-03T06:59:12;56.40;;;24.90;;
27802;SDS011;15182;48.174;11.562;2023-03-03T07:01:47;55.30;;;23.20;;
27802;SDS011;15182;48.174;11.562;2023-03-03T07:04:24;52.47;;;22.27;;
27802;SDS011;15182;48.174;11.562;2023-03-03T07:06:59;52.57;;;23.53;;
27802;SDS011;15182;48.174;11.562;2023-03-03T07:09:37;51.43;;;23.30;;
27802;SDS011;15182;48.174;11.562;2023-03-03T07:12:09;57.23;;;23.23;;
27802;SDS011;15182;48.174;11.562;2023-03-03T07:14:46;52.53;;;22.90;;
27802;SDS011;15182;48.174;11.562;2023-03-03T07:17:26;54.47;;;22.97;;
27802;SDS011;15182;48.174;11.562;2023-03-03T07:20:00;54.30;;;23.30;;
27802;SDS011;15182;48.174;11.562;2023-03-03T07:22:41;56.53;;;22.97;;
27802;SDS011;15182;48.174;11.562;2023-03-03T07:25:18;54.53;;;22.97;;
27802;SDS011;15182;48.174;11.562;2023-03-03T07:27:52;58.83;;;24.90;;
27802;SDS011;15182;48.174;11.562;2023-03-03T07:30:24;55.63;;;23.47;;
27802;SDS011;15182;48.174;11.562;2023-03-03T07:32:58;61.80;;;24.47;;
27802;SDS011;15182;48.174;11.562;2023-03-03T07:35:35;55.67;;;24.70;;
27802;SDS011;15182;48.174;11.562;2023-03-03T07:38:16;56.30;;;24.97;;
27802;SDS011;15182;48.174;11.562;2023-03-03T07:40:56;56.93;;;24.47;;
27802;SDS011;15182;48.174;11.562;2023-03-03T07:43:35;59.90;;;24.80;;
27802;SDS011;15182;48.174;11.562;2023-03-03T07:46:19;58.27;;;24.50;;
27802;SDS011;15182;48.174;11.562;2023-03-03T07:48:56;53.93;;;23.17;;
27802;SDS011;15182;48.174;11.562;2023-03-03T07:51:31;55.60;;;24.37;;
27802;SDS011;15182;48.174;11.562;2023-03-03T07:54:16;61.53;;;26.10;;
27802;SDS011;15182;48.174;11.562;2023-03-03T07:56:55;50.97;;;22.53;;
27802;SDS011;15182;48.174;11.562;2023-03-03T07:59:34;61.13;;;23.53;;
27802;SDS011;15182;48.174;11.562;2023-03-03T08:02:12;59.40;;;23.43;;
27802;SDS011;15182;48.174;11.562;2023-03-03T08:05:00;53.77;;;22.83;;
27802;SDS011;15182;48.174;11.562;2023-03-03T08:07:49;66.60;;;25.17;;
27802;SDS011;15182;48.174;11.562;2023-03-03T08:10:28;59.97;;;25.27;;
27802;SDS011;15182;48.174;11.562;2023-03-03T08:13:12;59.93;;;25.70;;
27802;SDS011;15182;48.174;11.562;2023-03-03T08:15:48;58.73;;;23.57;;
27802;SDS011;15182;48.174;11.562;2023-03-03T08:18:27;61.20;;;25.20;;
27802;SDS011;15182;48.174;11.562;2023-03-03T08:21:11;59.83;;;25.00;;
27802;SDS011;15182;48.174;11.562;2023-03-03T08:23:44;60.97;;;25.50;;
27802;SDS011;15182;48.174;11.562;2023-03-03T08:26:16;57.50;;;24.10;;
27802;SDS011;15182;48.174;11.562;2023-03-03T08:28:50;57.63;;;25.03;;
27802;SDS011;15182;48.174;11.562;2023-03-03T08:31:22;55.50;;;23.37;;
27802;SDS011;15182;48.174;11.562;2023-03-03T08:33:54;60.20;;;25.37;;
27802;SDS011;15182;48.174;11.562;2023-03-03T08:36:29;62.27;;;25.37;;
27802;SDS011;15182;48.174;11.562;2023-03-03T08:39:00;58.50;;;25.47;;
27802;SDS011;15182;48.174;11.562;2023-03-03T08:41:32;60.13;;;24.57;;
27802;SDS011;15182;48.174;11.562;2023-03-03T08:44:09;51.37;;;23.80;;
27802;SDS011;15182;48.174;11.562;2023-03-03T08:46:40;59.43;;;23.90;;
27802;SDS011;15182;48.174;11.562;2023-03-03T08:49:11;62.73;;;25.30;;
27802;SDS011;15182;48.174;11.562;2023-03-03T08:51:47;49.73;;;23.10;;
27802;SDS011;15182;48.174;11.562;2023-03-03T08:54:19;57.03;;;24.13;;
27802;SDS011;15182;48.174;11.562;2023-03-03T08:56:52;59.63;;;23.80;;
27802;SDS011;15182;48.174;11.562;2023-03-03T08:59:23;58.53;;;23.30;;
27802;SDS011;15182;48.174;11.562;2023-03-03T09:02:11;60.70;;;24.70;;
27802;SDS011;15182;48.174;11.562;2023-03-03T09:04:42;53.40;;;23.90;;
27802;SDS011;15182;48.174;11.562;2023-03-03T09:07:22;55.20;;;24.03;;
27802;SDS011;15182;48.174;11.562;2023-03-03T09:09:54;62.83;;;24.47;;
27802;SDS011;15182;48.174;11.562;2023-03-03T09:12:27;55.73;;;24.27;;
27802;SDS011;15182;48.174;11.562;2023-03-03T09:15:07;58.27;;;24.53;;
27802;SDS011;15182;48.174;11.562;2023-03-03T09:17:43;58.53;;;26.27;;
27802;SDS011;15182;48.174;11.562;2023-03-03T09:20:22;54.00;;;24.63;;
27802;SDS011;15182;48.174;11.562;2023-03-03T09:22:59;60.77;;;25.03;;
27802;SDS011;15182;48.174;11.562;2023-03-03T09:26:18;61.73;;;23.67;;
27802;SDS011;15182;48.174;11.562;2023-03-03T09:28:57;55.47;;;23.50;;
27802;SDS011;15182;48.174;11.562;2023-03-03T09:31:43;56.93;;;23.37;;
27802;SDS011;15182;48.174;11.562;2023-03-03T09:34:21;53.03;;;23.20;;
27802;SDS011;15182;48.174;11.562;2023-03-03T09:36:56;55.37;;;24.87;;
27802;SDS011;15182;48.174;11.562;2023-03-03T09:39:30;56.23;;;24.53;;
27802;SDS011;15182;48.174;11.562;2023-03-03T09:42:18;53.10;;;22.03;;
27802;SDS011;15182;48.174;11.562;2023-03-03T09:45:11;56.47;;;23.83;;
27802;SDS011;15182;48.174;11.562;2023-03-03T09:48:06;50.07;;;22.97;;
27802;SDS011;15182;48.174;11.562;2023-03-03T09:51:09;53.27;;;22.53;;
27802;SDS011;15182;48.174;11.562;2023-03-03T09:56:54;55.87;;;24.03;;
27802;SDS011;15182;48.174;11.562;2023-03-03T09:59:38;52.53;;;23.63;;
27802;SDS011;15182;48.174;11.562;2023-03-03T10:02:25;60.00;;;24.93;;
27802;SDS011;15182;48.174;11.562;2023-03-03T10:05:11;53.23;;;23.37;;
27802;SDS011;15182;48.174;11.562;2023-03-03T10:07:49;45.17;;;21.90;;
27802;SDS011;15182;48.174;11.562;2023-03-03T10:10:41;54.40;;;23.50;;
27802;SDS011;15182;48.174;11.562;2023-03-03T10:13:28;55.80;;;23.97;;
27802;SDS011;15182;48.174;11.562;2023-03-03T10:16:15;51.43;;;22.93;;
27802;SDS011;15182;48.174;11.562;2023-03-03T10:19:09;51.67;;;23.83;;
27802;SDS011;15182;48.174;11.562;2023-03-03T10:21:54;54.90;;;23.83;;
27802;SDS011;15182;48.174;11.562;2023-03-03T10:24:35;51.80;;;23.93;;
27802;SDS011;15182;48.174;11.562;2023-03-03T10:27:18;58.17;;;24.07;;
27802;SDS011;15182;48.174;11.562;2023-03-03T10:30:03;49.70;;;22.70;;
27802;SDS011;15182;48.174;11.562;2023-03-03T10:32:45;51.73;;;23.53;;
27802;SDS011;15182;48.174;11.562;2023-03-03T10:38:26;55.13;;;24.30;;
27802;SDS011;15182;48.174;11.562;2023-03-03T10:41:27;49.60;;;22.53;;
27802;SDS011;15182;48.174;11.562;2023-03-03T10:44:28;53.77;;;24.00;;
27802;SDS011;15182;48.174;11.562;2023-03-03T10:47:35;51.47;;;22.43;;
27802;SDS011;15182;48.174;11.562;2023-03-03T10:50:26;53.97;;;24.60;;
27802;SDS011;15182;48.174;11.562;2023-03-03T10:53:08;52.47;;;23.43;;
27802;SDS011;15182;48.174;11.562;2023-03-03T10:55:59;50.07;;;23.13;;
27802;SDS011;15182;48.174;11.562;2023-03-03T10:58:48;54.33;;;23.27;;
27802;SDS011;15182;48.174;11.562;2023-03-03T11:01:29;49.00;;;22.00;;
27802;SDS011;15182;48.174;11.562;2023-03-03T11:04:23;53.77;;;23.67;;
27802;SDS011;15182;48.174;11.562;2023-03-03T11:07:06;50.37;;;23.70;;
27802;SDS011;15182;48.174;11.562;2023-03-03T11:09:46;57.33;;;23.30;;
27802;SDS011;15182;48.174;11.562;2023-03-03T11:12:32;52.10;;;22.90;;
27802;SDS011;15182;48.174;11.562;2023-03-03T11:15:19;53.60;;;23.23;;
27802;SDS011;15182;48.174;11.562;2023-03-03T11:18:06;55.93;;;22.97;;
27802;SDS011;15182;48.174;11.562;2023-03-03T11:20:55;45.37;;;22.23;;
27802;SDS011;15182;48.174;11.562;2023-03-03T11:27:08;58.43;;;24.93;;
27802;SDS011;15182;48.174;11.562;2023-03-03T11:29:57;61.40;;;24.27;;
27802;SDS011;15182;48.174;11.562;2023-03-03T11:32:44;55.50;;;23.57;;
27802;SDS011;15182;48.174;11.562;2023-03-03T11:35:25;52.83;;;23.30;;
27802;SDS011;15182;48.174;11.562;2023-03-03T11:38:08;52.43;;;22.87;;
27802;SDS011;15182;48.174;11.562;2023-03-03T11:41:00;50.07;;;24.23;;
27802;SDS011;15182;48.174;11.562;2023-03-03T11:43:39;54.10;;;23.90;;
27802;SDS011;15182;48.174;11.562;2023-03-03T11:46:13;57.73;;;24.67;;
27802;SDS011;15182;48.174;11.562;2023-03-03T11:48:51;51.13;;;23.67;;
27802;SDS011;15182;48.174;11.562;2023-03-03T11:51:32;45.37;;;22.80;;
27802;SDS011;15182;48.174;11.562;2023-03-03T11:54:16;50.63;;;23.43;;
27802;SDS011;15182;48.174;11.562;2023-03-03T11:56:54;52.17;;;24.23;;
27802;SDS011;15182;48.174;11.562;2023-03-03T11:59:40;61.37;;;24.47;;
27802;SDS011;15182;48.174;11.562;2023-03-03T12:02:22;48.00;;;23.20;;
27802;SDS011;15182;48.174;11.562;2023-03-03T12:05:12;52.70;;;24.10;;
27802;SDS011;15182;48.174;11.562;2023-03-03T12:07:57;49.80;;;24.43;;
27802;SDS011;15182;48.174;11.562;2023-03-03T12:10:35;49.20;;;24.27;;
27802;SDS011;15182;48.174;11.562;2023-03-03T12:13:18;55.27;;;23.43;;
27802;SDS011;15182;48.174;11.562;2023-03-03T12:16:00;57.67;;;23.53;;
27802;SDS011;15182;48.174;11.562;2023-03-03T12:18:47;53.03;;;24.03;;
27802;SDS011;15182;48.174;11.562;2023-03-03T12:24:41;46.93;;;23.97;;
27802;SDS011;15182;48.174;11.562;2023-03-03T12:27:30;45.77;;;23.20;;
27802;SDS011;15182;48.174;11.562;2023-03-03T12:30:13;55.23;;;24.70;;
27802;SDS011;15182;48.174;11.562;2023-03-03T12:32:58;49.93;;;23.47;;
27802;SDS011;15182;48.174;11.562;2023-03-03T12:35:42;50.80;;;23.90;;
27802;SDS011;15182;48.174;11.562;2023-03-03T12:38:21;48.47;;;22.90;;
27802;SDS011;15182;48.174;11.562;2023-03-03T12:41:02;51.60;;;23.90;;
27802;SDS011;15182;48.174;11.562;2023-03-03T12:43:46;47.60;;;22.67;;
27802;SDS011;15182;48.174;11.562;2023-03-03T12:46:24;45.50;;;23.87;;
27802;SDS011;15182;48.174;11.562;2023-03-03T12:49:05;48.80;;;22.67;;
27802;SDS011;15182;48.174;11.562;2023-03-03T12:51:41;51.50;;;23.80;;
27802;SDS011;15182;48.174;11.562;2023-03-03T12:57:20;47.03;;;22.60;;
27802;SDS011;15182;48.174;11.562;2023-03-03T13:00:06;46.67;;;23.23;;
27802;SDS011;15182;48.174;11.562;2023-03-03T13:02:55;45.47;;;22.60;;
27802;SDS011;15182;48.174;11.562;2023-03-03T13:05:32;53.93;;;23.40;;
27802;SDS011;15182;48.174;11.562;2023-03-03T13:08:19;48.57;;;23.40;;
27802;SDS011;15182;48.174;11.562;2023-03-03T13:11:00;49.67;;;23.43;;
27802;SDS011;15182;48.174;11.562;2023-03-03T13:13:50;45.93;;;23.47;;
27802;SDS011;15182;48.174;11.562;2023-03-03T13:16:29;48.60;;;23.13;;
27802;SDS011;15182;48.174;11.562;2023-03-03T13:19:05;49.80;;;24.50;;
27802;SDS011;15182;48.174;11.562;2023-03-03T13:21:42;51.40;;;23.17;;
27802;SDS011;15182;48.174;11.562;2023-03-03T13:24:19;48.40;;;24.10;;
27802;SDS011;15182;48.174;11.562;2023-03-03T13:26:58;47.80;;;22.70;;
27802;SDS011;15182;48.174;11.562;2023-03-03T13:29:35;52.53;;;24.07;;
27802;SDS011;15182;48.174;11.562;2023-03-03T13:32:13;51.53;;;23.23;;
27802;SDS011;15182;48.174;11.562;2023-03-03T13:34:50;51.37;;;23.80;;
27802;SDS011;15182;48.174;11.562;2023-03-03T13:37:29;51.50;;;23.47;;
27802;SDS011;15182;48.174;11.562;2023-03-03T13:40:12;51.83;;;24.10;;
27802;SDS011;15182;48.174;11.562;2023-03-03T13:42:49;47.83;;;22.13;;
27802;SDS011;15182;48.174;11.562;2023-03-03T13:45:28;53.43;;;23.53;;
27802;SDS011;15182;48.174;11.562;2023-03-03T13:48:13;48.47;;;22.47;;
27802;SDS011;15182;48.174;11.562;2023-03-03T13:50:56;49.13;;;22.07;;
27802;SDS011;15182;48.174;11.562;2023-03-03T13:53:37;47.30;;;23.13;;
27802;SDS011;15182;48.174;11.562;2023-03-03T13:56:19;51.27;;;23.10;;
27802;SDS011;15182;48.174;11.562;2023-03-03T13:59:02;47.23;;;22.40;;
27802;SDS011;15182;48.174;11.562;2023-03-03T14:01:44;49.63;;;23.47;;
27802;SDS011;15182;48.174;11.562;2023-03-03T14:04:30;43.63;;;22.03;;
27802;SDS011;15182;48.174;11.562;2023-03-03T14:07:09;50.37;;;23.50;;
27802;SDS011;15182;48.174;11.562;2023-03-03T14:09:47;42.53;;;22.63;;
27802;SDS011;15182;48.174;11.562;2023-03-03T14:12:28;49.80;;;23.40;;
27802;SDS011;15182;48.174;11.562;2023-03-03T14:15:09;48.43;;;23.27;;
27802;SDS011;15182;48.174;11.562;2023-03-03T14:17:54;50.00;;;24.13;;
27802;SDS011;15182;48.174;11.562;2023-03-03T14:20:46;52.03;;;22.70;;
27802;SDS011;15182;48.174;11.562;2023-03-03T14:23:23;44.63;;;21.60;;
27802;SDS011;15182;48.174;11.562;2023-03-03T14:26:04;48.87;;;22.93;;
27802;SDS011;15182;48.174;11.562;2023-03-03T14:28:39;47.03;;;23.40;;
27802;SDS011;15182;48.174;11.562;2023-03-03T14:31:15;49.53;;;23.20;;
27802;SDS011;15182;48.174;11.562;2023-03-03T14:33:56;51.77;;;23.53;;
27802;SDS011;15182;48.174;11.562;2023-03-03T14:36:31;50.17;;;23.37;;
27802;SDS011;15182;48.174;11.562;2023-03-03T14:39:15;54.10;;;22.60;;
27802;SDS011;15182;48.174;11.562;2023-03-03T14:41:57;48.63;;;22.03;;
27802;SDS011;15182;48.174;11.562;2023-03-03T14:44:31;57.10;;;23.03;;
27802;SDS011;15182;48.174;11.562;2023-03-03T14:47:19;47.17;;;21.63;;
27802;SDS011;15182;48.174;11.562;2023-03-03T14:49:52;50.13;;;22.37;;
27802;SDS011;15182;48.174;11.562;2023-03-03T14:52:27;47.03;;;21.83;;
27802;SDS011;15182;48.174;11.562;2023-03-03T14:55:07;49.50;;;23.03;;
27802;SDS011;15182;48.174;11.562;2023-03-03T14:58:03;52.37;;;22.47;;
27802;SDS011;15182;48.174;11.562;2023-03-03T15:00:38;49.00;;;23.10;;
27802;SDS011;15182;48.174;11.562;2023-03-03T15:03:17;49.50;;;23.27;;
27802;SDS011;15182;48.174;11.562;2023-03-03T15:05:54;45.13;;;22.10;;
27802;SDS011;15182;48.174;11.562;2023-03-03T15:08:29;54.33;;;23.93;;
27802;SDS011;15182;48.174;11.562;2023-03-03T15:11:13;57.53;;;22.90;;
27802;SDS011;15182;48.174;11.562;2023-03-03T15:13:52;44.27;;;21.93;;
27802;SDS011;15182;48.174;11.562;2023-03-03T15:16:36;43.70;;;22.00;;
27802;SDS011;15182;48.174;11.562;2023-03-03T15:22:08;43.13;;;21.40;;
27802;SDS011;15182;48.174;11.562;2023-03-03T15:24:48;44.60;;;21.43;;
27802;SDS011;15182;48.174;11.562;2023-03-03T15:27:27;46.23;;;21.27;;
27802;SDS011;15182;48.174;11.562;2023-03-03T15:30:08;40.93;;;20.97;;